Flight Track Log - Related Links

Times and Time Zones

All times are in EDT time to prevent confusion due to time zone crossing. See the CCA919 flight status page for this flight to view local times or setup timezone preferences in your user account.

Time Position Orientation Groundspeed Altitude Reporting Facility
EDT Latitude Longitude Course Direction KTS MPH feet Rate Location/Type
Thu 04:37:00 AM 31.2795 122.1981 68° East  Level Estimated
Thu 04:38:00 AM 31.3248 122.3337 69° East  Level Estimated
Thu 04:39:00 AM 31.3700 122.4693 69° East  Level Estimated
Thu 04:40:00 AM 31.4150 122.6051 69° East  Level Estimated
Thu 04:41:00 AM 31.4599 122.7410 69° East  Level Estimated
Thu 04:42:00 AM 31.5046 122.8770 69° East  Level Estimated
Thu 04:43:00 AM 31.5491 123.0132 69° East  Level Estimated
Thu 04:44:00 AM 31.5936 123.1495 69° East  Level Estimated
Thu 04:45:00 AM 31.6379 123.2859 69° East  Level Estimated
Thu 04:46:00 AM 31.6820 123.4225 69° East  Level Estimated
Thu 04:47:00 AM 31.7260 123.5592 69° East  Level Estimated
Thu 04:48:00 AM 31.7698 123.6960 69° East  Level Estimated
Thu 04:49:00 AM 31.8136 123.8329 69° East  Level Estimated
Thu 04:50:00 AM 31.8571 123.9700 69° East  Level Estimated
Thu 04:51:00 AM 31.9005 124.1072 70° East  Level Estimated
Thu 04:52:00 AM 31.9438 124.2446 70° East  Level Estimated
Thu 04:53:00 AM 31.9869 124.3820 70° East  Level Estimated
Thu 04:54:00 AM 32.0299 124.5196 70° East  Level Estimated
Thu 04:55:00 AM 32.0727 124.6574 70° East  Level Estimated
Thu 04:56:00 AM 32.1154 124.7952 70° East  Level Estimated
Thu 04:57:00 AM 32.1579 124.9332 70° East  Level Estimated
Thu 04:58:00 AM 32.2002 125.0713 70° East  Level Estimated
Thu 04:59:00 AM 32.2425 125.2095 70° East  Level Estimated
Thu 05:00:00 AM 32.2845 125.3479 70° East  Level Estimated
Thu 05:01:00 AM 32.3265 125.4864 70° East  Level Estimated
Thu 05:02:00 AM 32.3682 125.6250 70° East  Level Estimated
Thu 05:03:00 AM 32.4098 125.7638 70° East  Level Estimated
Thu 05:04:00 AM 32.4513 125.9026 70° East  Level Estimated
Thu 05:05:00 AM 32.4926 126.0417 71° East  Level Estimated
Thu 05:06:00 AM 32.5338 126.1808 71° East  Level Estimated
Thu 05:07:00 AM 32.5748 126.3201 71° East  Level Estimated
Thu 05:08:00 AM 32.6156 126.4594 71° East  Level Estimated
Thu 05:09:00 AM 32.6563 126.5990 71° East  Level Estimated
Thu 05:10:00 AM 32.6969 126.7386 71° East  Level Estimated
Thu 05:11:00 AM 32.7372 126.8784 71° East  Level Estimated
Thu 05:12:00 AM 32.7775 127.0183 71° East  Level Estimated
Thu 05:13:00 AM 32.8176 127.1583 71° East  Level Estimated
Thu 05:14:00 AM 32.8575 127.2984 71° East  Level Estimated
Thu 05:15:00 AM 32.8972 127.4387 71° East  Level Estimated
Thu 05:16:00 AM 32.9368 127.5791 71° East  Level Estimated
Thu 05:17:00 AM 32.9763 127.7196 71° East  Level Estimated
Thu 05:18:00 AM 33.0156 127.8603 72° East  Level Estimated
Thu 05:19:00 AM 33.0547 128.0011 72° East  Level Estimated
Thu 05:20:00 AM 33.0937 128.1420 72° East  Level Estimated
Thu 05:21:00 AM 33.1325 128.2830 72° East  Level Estimated
Thu 05:22:00 AM 33.1712 128.4241 72° East  Level Estimated
Thu 05:23:00 AM 33.2097 128.5654 72° East  Level Estimated
Thu 05:24:00 AM 33.2480 128.7068 72° East  Level Estimated
Thu 05:25:00 AM 33.2862 128.8483 72° East  Level Estimated
Thu 05:26:00 AM 33.3242 128.9900 72° East  Level Estimated
Thu 05:27:00 AM 33.3621 129.1317 72° East  Level Estimated
Thu 05:28:00 AM 33.3997 129.2736 72° East  Level Estimated
Thu 05:29:00 AM 33.4373 129.4156 72° East  Level Estimated
Thu 05:30:00 AM 33.4747 129.5578 72° East  Level Estimated
Thu 05:31:00 AM 33.5119 129.7000 73° East  Level Estimated
Thu 05:32:00 AM 33.5489 129.8424 73° East  Level Estimated
Thu 05:33:00 AM 33.5858 129.9849 73° East  Level Estimated
Thu 05:33:04 AM 32.9271 130.2713 80° East 516 594 31,000  Level FlightAware ADS-B
Thu 05:33:34 AM 32.9386 130.3530 80° East 516 594 31,000  Level FlightAware ADS-B
Thu 05:33:58 AM 32.9481 130.4206 80° East 515 593 31,000  Level FlightAware ADS-B
Thu 05:34:35 AM 32.9626 130.5235 80° East 515 593 31,000  Level FlightAware ADS-B
Thu 05:35:04 AM 32.9740 130.6063 80° East 516 594 31,000  Level FlightAware ADS-B
Thu 05:35:34 AM 32.9857 130.6903 80° East 516 594 31,000  Level FlightAware ADS-B
Thu 05:36:04 AM 32.9970 130.7721 80° East 515 593 31,000  Level FlightAware ADS-B
Thu 05:36:34 AM 33.0089 130.8589 80° East 516 594 31,000  Level FlightAware ADS-B
Thu 05:37:04 AM 33.0202 130.9418 80° East 516 594 31,000  Level FlightAware ADS-B
Thu 05:37:34 AM 33.0312 131.0231 80° East 516 594 31,000  Level FlightAware ADS-B
Thu 05:38:05 AM 33.0432 131.1118 80° East 517 595 31,000  Level FlightAware ADS-B
Thu 05:38:29 AM 33.0525 131.1814 80° East 516 594 31,000  Level FlightAware ADS-B
Thu 05:39:24 AM 33.0727 131.3330 81° East 514 592 31,000  Level FlightAware ADS-B
Thu 05:39:54 AM 33.0835 131.4152 81° East 514 592 31,000  Level FlightAware ADS-B
Thu 05:40:24 AM 33.0949 131.5016 81° East 513 590 31,000  Level FlightAware ADS-B
Thu 05:40:54 AM 33.1059 131.5847 81° East 513 590 31,000  Level FlightAware ADS-B
Thu 05:41:24 AM 33.1167 131.6685 81° East 512 589 31,000  Level FlightAware ADS-B
Thu 05:41:54 AM 33.1268 131.7460 81° East 511 588 31,000  Level FlightAware ADS-B
Thu 05:42:24 AM 33.1366 131.8229 81° East 512 589 31,000  Level FlightAware ADS-B
Thu 05:42:44 AM 33.1442 131.8820 81° East 512 589 31,000 71 Level FlightAware ADS-B
Thu 06:10:35 AM 33.6568 136.6104 85° East 516 594 33,000 69 Climbing FlightAware ADS-B
Thu 06:11:34 AM 33.6716 136.7773 85° East 517 595 33,000  Level FlightAware ADS-B
Thu 06:12:14 AM 33.6817 136.8931 84° East 519 597 33,000  Level FlightAware ADS-B
Thu 06:12:54 AM 33.6915 137.0074 84° East 519 597 33,000  Level FlightAware ADS-B
Thu 06:13:35 AM 33.7029 137.1207 81° East 514 592 33,000  Level FlightAware ADS-B
Thu 06:14:15 AM 33.7224 137.2307 78° East 507 583 33,000  Level FlightAware ADS-B
Thu 06:14:49 AM 33.7401 137.3275 79° East 504 580 33,000  Level FlightAware ADS-B
Thu 06:15:32 AM 33.7614 137.4440 79° East 502 578 33,000  Level FlightAware ADS-B
Thu 06:16:15 AM 33.7829 137.5612 79° East 502 578 33,000  Level FlightAware ADS-B
Thu 06:16:54 AM 33.8020 137.6666 79° East 503 579 33,000  Level FlightAware ADS-B
Thu 06:17:33 AM 33.8223 137.7728 75° East 500 575 33,000  Level FlightAware ADS-B
Thu 06:18:14 AM 33.8501 137.8827 73° East 497 572 33,000  Level FlightAware ADS-B
Thu 06:18:53 AM 33.8763 137.9845 73° East 498 573 33,000  Level FlightAware ADS-B
Thu 06:19:34 AM 33.9037 138.0918 73° East 498 573 33,000  Level FlightAware ADS-B
Thu 06:20:14 AM 33.9308 138.1980 73° East 498 573 33,000  Level FlightAware ADS-B
Thu 06:20:54 AM 33.9580 138.3052 73° East 496 571 33,000  Level FlightAware ADS-B
Thu 06:21:35 AM 33.9846 138.4104 73° East 498 573 33,000  Level FlightAware ADS-B
Thu 06:22:14 AM 34.0114 138.5166 73° East 500 575 33,000  Level FlightAware ADS-B
Thu 06:22:55 AM 34.0384 138.6243 73° East 502 578 33,000  Level FlightAware ADS-B
Thu 06:23:50 AM 34.0757 138.7739 73° East 503 579 33,000  Level FlightAware ADS-B
Thu 06:24:32 AM 34.1035 138.8856 73° East 504 580 33,000 57 Level FlightAware ADS-B
Thu 06:25:35 AM 34.1456 139.0564 74° East 505 581 33,100  Climbing FlightAware ADS-B
Thu 06:26:33 AM 34.1841 139.2131 75° East 502 578 33,000 -50 Descending FlightAware ADS-B
Thu 06:27:35 AM 34.2234 139.3743 75° East 498 573 33,000  Level FlightAware ADS-B
Thu 06:28:14 AM 34.2503 139.4848 75° East 497 572 33,000 -180 Level FlightAware ADS-B
Thu 06:29:15 AM 34.2884 139.6423 75° East 501 577 32,700 -653 Descending FlightAware ADS-B
Thu 06:29:55 AM 34.3146 139.7514 75° East 497 572 31,900 -2,051 Descending FlightAware ADS-B
Thu 06:30:34 AM 34.3406 139.8601 75° East 500 575 30,000 -2,700 Descending FlightAware ADS-B
Thu 06:31:15 AM 34.3713 139.9621 68° East 482 555 28,300 -2,495 Descending FlightAware ADS-B
Thu 06:32:15 AM 34.4350 140.1024 58° Northeast 461 531 25,800 -2,580 Descending FlightAware ADS-B
Thu 06:32:55 AM 34.4797 140.1886 58° Northeast 461 531 24,000 -2,400 Descending FlightAware ADS-B
Thu 06:33:35 AM 34.5245 140.2755 59° Northeast 443 510 22,600 -2,430 Descending FlightAware ADS-B
Thu 06:34:14 AM 34.5683 140.3600 59° Northeast 442 509 20,800 -2,354 Descending FlightAware ADS-B
Thu 06:34:54 AM 34.6107 140.4424 58° Northeast 435 501 19,500 -2,074 Descending FlightAware ADS-B
Thu 06:35:35 AM 34.6525 140.5242 58° Northeast 426 490 18,000 -2,100 Descending FlightAware ADS-B
Thu 06:36:14 AM 34.6941 140.6054 59° Northeast 409 471 16,700 -1,899 Descending FlightAware ADS-B
Thu 06:36:54 AM 34.7410 140.6683 29° Northeast 369 425 15,500 -1,948 Descending FlightAware ADS-B
Thu 06:37:31 AM 34.8030 140.6852 North 355 409 14,200 -1,333 Descending FlightAware ADS-B
Thu 06:38:15 AM 34.8767 140.6950 North 358 412 13,700 -578 Descending FlightAware ADS-B
Thu 06:38:54 AM 34.9422 140.7036 North 357 411 13,400 -675 Descending FlightAware ADS-B
Thu 06:39:35 AM 35.0103 140.7101 358° North 354 407 12,800 -1,500 Descending FlightAware ADS-B
Thu 06:40:14 AM 35.0732 140.6966 349° North 348 400 11,400 -1,200 Descending FlightAware ADS-B
Thu 06:41:35 AM 35.1896 140.6689 348° North 284 327 10,400 -840 Descending FlightAware ADS-B
Thu 06:41:54 AM 35.2135 140.6631 349° North 280 322 10,000 -1,350 Descending FlightAware ADS-B
Thu 06:42:15 AM 35.2431 140.6560 349° North 277 319 9,500 -1,610 Descending FlightAware ADS-B
Thu 06:42:35 AM 35.2687 140.6498 349° North 277 319 8,900 -1,500 Descending FlightAware ADS-B
Thu 06:42:55 AM 35.2925 140.6441 349° North 283 326 8,500 -1,385 Descending FlightAware ADS-B
Thu 06:43:14 AM 35.3171 140.6381 349° North 281 323 8,000 -1,500 Descending FlightAware ADS-B
Thu 06:43:35 AM 35.3440 140.6316 349° North 278 320 7,500 -1,463 Descending FlightAware ADS-B
Thu 06:43:55 AM 35.3704 140.6253 349° North 267 307 7,000 -1,421 Descending FlightAware ADS-B
Thu 06:44:13 AM 35.3923 140.6201 349° North 263 303 6,600 -1,200 Descending FlightAware ADS-B
Thu 06:44:55 AM 35.4431 140.6080 348° North 248 285 5,800 -1,024 Descending FlightAware ADS-B
Thu 06:45:35 AM 35.4878 140.5969 348° North 232 267 5,200 -532 Descending FlightAware ADS-B
Thu 06:46:14 AM 35.5243 140.5801 332° Northwest 203 234 5,100 -100 Descending FlightAware ADS-B
Thu 06:46:35 AM 35.5410 140.5685 329° Northwest 185 213 5,100  Level FlightAware ADS-B
Thu 06:46:55 AM 35.5544 140.5590 329° Northwest 154 177 5,100  Level FlightAware ADS-B
Thu 06:47:14 AM 35.5659 140.5508 328° Northwest 140 161 5,100 -154 Level FlightAware ADS-B
Thu 06:47:34 AM 35.5773 140.5424 328° Northwest 138 159 5,000 -439 Descending FlightAware ADS-B
Thu 06:47:55 AM 35.5885 140.5344 330° Northwest 147 169 4,800 -732 Descending FlightAware ADS-B
Thu 06:48:15 AM 35.6016 140.5250 330° Northwest 147 169 4,500 -923 Descending FlightAware ADS-B
Thu 06:48:34 AM 35.6124 140.5174 328° Northwest 138 159 4,200 -923 Descending FlightAware ADS-B
Thu 06:48:54 AM 35.6234 140.5094 328° Northwest 136 157 3,900 -732 Descending FlightAware ADS-B
Thu 06:49:15 AM 35.6355 140.5007 328° Northwest 138 159 3,700 -769 Descending FlightAware ADS-B
Thu 06:49:33 AM 35.6458 140.4932 328° Northwest 138 159 3,400 -811 Descending FlightAware ADS-B
Thu 06:49:52 AM 35.6576 140.4846 328° Northwest 139 160 3,200 -735 Descending FlightAware ADS-B
Thu 06:51:11 AM 35.6997 140.4542 328° Northwest 134 154 2,200 -779 Descending FlightAware ADS-B
Thu 06:52:03 AM 35.7279 140.4340 330° Northwest 137 158 1,500 -808 Descending FlightAware ADS-B
Thu 06:54:00 AM 35.7647 140.3864 314° West  Level Estimated

Login

Don't have an account? Register now (free) for customized features, flight alerts, and more!